METAR Data
IDs: Format: Raw Decoded Include TAF

Data at: 1323 UTC 16 Aug 2022

KPOC 160347Z 26008KT 10SM CLR 26/14 A2985
KPOC 160247Z 26010KT 10SM CLR 28/14 A2984
KPOC 160147Z 27010KT 10SM CLR 31/15 A2982
KPOC 160047Z 27010KT 10SM CLR 33/16 A2981
KPOC 152347Z 26012KT 10SM CLR 34/16 A2980
KPOC 152247Z 26010KT 10SM CLR 34/14 A2981
KPOC 152147Z 26010KT 10SM CLR 34/14 A2985
KPOC 152047Z 26010KT 10SM CLR 34/14 A2985
KPOC 151947Z 29005KT 10SM CLR 31/15 A2988
KPOC 151847Z 29005KT 10SM CLR 31/15 A2988
KPOC 151747Z 25007KT 10SM CLR 29/14 A2989
KPOC 151647Z 27004KT 10SM CLR 27/14 A2988
KPOC 151547Z 00000KT 10SM CLR 26/13 A2988
KPOC 151447Z 00000KT 10SM CLR 23/13 A2987
KPOC 151347Z 00000KT 10SM CLR 20/14 A2988
KPOC 150247Z 27010KT 10SM CLR 31/10 A2987